Nearby METAR Reports

 

KHIF - Hill Afb/Ogden, Utah, USA
Distance from station: ENE 6mi, 9km
Updated: Thu, 23-Nov-2017 2:58pm MST
Mostly cloudy
Mostly cloudy
 Wind from SW
Wind: SW 8 mph , 13 km/h
Temperature: 59°F , 15°C
Dew Point: 41°F , 5°C
Humidity: 51%
Barometer: 30.16 inHg , 1021.3 hPa
Clouds: Mostly cloudy
Visibility: 10 miles , 16 km
Cloud details: Mostly cloudy 14000 ft
Mostly cloudy 20000 ft
2017/11/23 21:58 KHIF 232158Z AUTO 22007KT 10SM BKN140 BKN200 15/05 A3016 RMK AO2 SLP185 T01530046
KOGD - Ogden, Utah, USA
Distance from station: NNE 9mi, 14km
Updated: Thu, 23-Nov-2017 2:53pm MST
Clear
Clear
 Wind from WNW
Wind: WNW 6 mph , 9 km/h
Temperature: 61°F , 16°C
Dew Point: 43°F , 6°C
Humidity: 52%
Barometer: 30.15 inHg , 1021 hPa
Clouds: Clear
Visibility: 10 miles , 16 km
2017/11/23 21:53 KOGD 232153Z 29005KT 10SM CLR 16/06 A3015 RMK AO2 SLP182 T01610061
 
KSLC - Salt Lake City, Utah, USA
Distance from station: SSE 21mi, 34km
Updated: Thu, 23-Nov-2017 2:54pm MST
Mostly cloudy
Mostly cloudy
 Wind from W
Wind: W 3 mph , 6 km/h
Temperature: 63°F , 17°C
Dew Point: 45°F , 7°C
Humidity: 52%
Barometer: 30.14 inHg , 1020.7 hPa
Clouds: Mostly cloudy
Visibility: 10 miles , 16 km
Cloud details: Few Clouds 12000 ft
Mostly cloudy 15000 ft
Mostly cloudy 20000 ft
2017/11/23 21:54 KSLC 232154Z 26003KT 10SM FEW120 BKN150 BKN200 17/07 A3014 RMK AO2 SLP180 ACSL DSNT SE-S AND SW T01670067
KLGU - Logan, Utah, USA
Distance from station: NNE 50mi, 80km
Updated: Thu, 23-Nov-2017 2:51pm MST
Mostly cloudy
Mostly cloudy
 Wind from N
Wind: N 7 mph , 11 km/h
Temperature: 57°F , 14°C
Dew Point: 43°F , 6°C
Humidity: 59%
Barometer: 30.14 inHg , 1020.7 hPa
Clouds: Mostly cloudy
Visibility: 10 miles , 16 km
Cloud details: Mostly cloudy 10000 ft
2017/11/23 21:51 KLGU 232151Z AUTO 36006KT 10SM BKN100 14/06 A3014 RMK AO2 SLP192 T01440061
 
K36U - Heber/Russ Mcdon, Utah, USA
Distance from station: SE 53mi, 85km
Updated: Wed, 11-Oct-2017 6:50pm MDT
NOT Current
Clear
Clear
 Wind from SSW
Wind: SSW 10 mph , 17 km/h, Gust: 18 mph , 30 km/h
Temperature: 63°F , 17°C
Dew Point: 16°F , -9°C
Humidity: 16%
Barometer: 29.87 inHg , 1011.5 hPa
Clouds: Clear
Visibility: 10 miles , 16 km
2017/10/12 00:50 K36U 120050Z AUTO 21009G16KT 10SM CLR 17/M09 A2987 RMK AO2
KEVW - Evanston, Wyoming, USA
Distance from station: ENE 55mi, 89km
Updated: Thu, 23-Nov-2017 2:53pm MST
Clear
Clear
 Wind from WSW
Wind: WSW 16 mph , 26 km/h
Temperature: 59°F , 15°C
Dew Point: 34°F , 1°C
Humidity: 39%
Barometer: 30.22 inHg , 1023.4 hPa
Clouds: Clear
Visibility: 10 miles , 16 km
2017/11/23 21:53 KEVW 232153Z AUTO 24014KT 10SM CLR 15/01 A3022 RMK AO2 SLP177 T01500011
 
KPVU - Provo Muni, Utah, USA
Distance from station: SSE 62mi, 100km
Updated: Thu, 23-Nov-2017 2:56pm MST
Clear
Clear
 Wind from NW
Wind: NW 7 mph , 11 km/h
Temperature: 54°F , 12°C
Dew Point: 39°F , 4°C
Humidity: 58%
Barometer: 30.17 inHg , 1021.7 hPa
Clouds: Clear
Visibility: 10 miles , 16 km
2017/11/23 21:56 KPVU 232156Z 32006KT 10SM CLR 12/04 A3017 RMK AO2 SLP209 T01170044
KDPG - Dugway Prvg Grou, Utah, USA
Distance from station: SW 75mi, 121km
Updated: Wed, 22-Nov-2017 3:50pm MST
NOT Current
Mostly cloudy
Mostly cloudy
 Wind from ENE
Wind: ENE 5 mph , 7 km/h
Temperature: 63°F , 17°C
Dew Point: 43°F , 6°C
Humidity: 49%
Barometer: 30.37 inHg , 1028.4 hPa
Clouds: Mostly cloudy
Visibility: 40 miles , 64 km
Cloud details: Few Clouds 7000 ft
Partly cloudy 19000 ft
Mostly cloudy 24000 ft
2017/11/22 22:50 KDPG 222250Z 07004KT 40SM FEW070 SCT190 BKN240 17/06 A3037 RMK SLP265 T01660055 LAST
 
KENV - Wendover (aut), Utah, USA
Distance from station: WSW 105mi, 169km
Updated: Thu, 23-Nov-2017 2:56pm MST
Clear
Clear
 Wind from SSE
Wind: SSE 3 mph , 6 km/h
Temperature: 54°F , 12°C
Dew Point: 41°F , 5°C
Humidity: 63%
Barometer: 30.15 inHg , 1021 hPa
Clouds: Clear
Visibility: 10 miles , 16 km
2017/11/23 21:56 KENV 232156Z AUTO 16003KT 10SM CLR 12/05 A3015 RMK AO2 SLP212 T01170050
KPUC - Price, Utah, USA
Distance from station: SE 123mi, 197km
Updated: Thu, 23-Nov-2017 2:53pm MST
Clear
Clear
 Wind from S
Wind: S 3 mph , 6 km/h
Temperature: 55°F , 13°C
Dew Point: 32°F , 0°C
Humidity: 41%
Barometer: 30.25 inHg , 1024.4 hPa
Clouds: Clear
Visibility: 10 miles , 16 km
2017/11/23 21:53 KPUC 232153Z AUTO 18003KT 10SM CLR 13/00 A3025 RMK AO2 SLP234 T01330000
 
KPIH - Pocatello, Idaho, USA
Distance from station: NNW 130mi, 208km
Updated: Thu, 23-Nov-2017 2:53pm MST
Mostly cloudy
Mostly cloudy
 Wind from SSW
Wind: SSW 21 mph , 33 km/h, Gust: 26 mph , 43 km/h
Temperature: 63°F , 17°C
Dew Point: 39°F , 4°C
Humidity: 42%
Barometer: 30.07 inHg , 1018.3 hPa
Clouds: Mostly cloudy
Visibility: 10 miles , 16 km
Cloud details: Mostly cloudy 7500 ft
2017/11/23 21:53 KPIH 232153Z 20018G23KT 10SM BKN075 17/04 A3007 RMK AO2 SLP172 T01720044
KBYI - Burley, Idaho, USA
Distance from station: NW 134mi, 216km
Updated: Thu, 23-Nov-2017 2:53pm MST
Clear
Clear
 Wind from SW
Wind: SW 20 mph , 31 km/h, Gust: 26 mph , 43 km/h
Temperature: 64°F , 18°C
Dew Point: 39°F , 4°C
Humidity: 40%
Barometer: 30.04 inHg , 1017.3 hPa
Clouds: Clear
Visibility: 10 miles , 16 km
2017/11/23 21:53 KBYI 232153Z AUTO 22017G23KT 10SM CLR 18/04 A3004 RMK AO2 SLP156 T01830044
 
KVEL - Vernal, Utah, USA
Distance from station: ESE 140mi, 226km
Updated: Thu, 23-Nov-2017 2:53pm MST
Clear
Clear
 Wind from calm
Wind: Calm
Temperature: 57°F , 14°C
Dew Point: 34°F , 1°C
Humidity: 41%
Barometer: 30.20 inHg , 1022.7 hPa
Clouds: Clear
Visibility: 10 miles , 16 km
2017/11/23 21:53 KVEL 232153Z AUTO 00000KT 10SM CLR 14/01 A3020 RMK AO2 SLP207 T01390011
KBPI - Big Piney, Wyoming, USA
Distance from station: NE 145mi, 234km
Updated: Thu, 23-Nov-2017 2:53pm MST
Overcast
Overcast
 Wind from W
Wind: W 7 mph , 11 km/h
Temperature: 54°F , 12°C
Dew Point: 36°F , 2°C
Humidity: 51%
Barometer: 30.16 inHg , 1021.3 hPa
Clouds: Overcast
Visibility: 10 miles , 16 km
Cloud details: Overcast 6000 ft
2017/11/23 21:53 KBPI 232153Z AUTO 27006KT 10SM OVC060 12/02 A3016 RMK AO2 SLP188 T01220017